To NAV CANADA Home Page Login to a new session Search on AWWS site Disclaimer Vers la page française équivalente Tips FAQ What's new on the site To the Forecasts and Observations / NOTAM section To "File a Flight Plan" website Publications and other links Update of the User's profile FIC Telephone Numbers My Weather Data Folder Route Weather Data Regional Weather Data Local Weather Data To the Forecasts and Observations / NOTAM section
Request Generated 01/24/2022 at 22:10:46 UTC . Weather information available at that time is displayed.


Go to a specific product

Save this request - Inactive

NOTAM

NOTAM


PIREP
To the Product Selector

FIR_TORONTO (YZ)

UACN10 CYXU 242130
YZ
UA /OV CYYZ /TM 2127 /FLUNKN /TP UNKN /IC MOD MX 050-060 /RM REPD BY
ALL TYP

UACN10 CYXU 241916
YZ
UA /OV CYYZ 090010 /TM 1916 /FLDURC /TP MU2 /IC MOD MX 050-060


METAR/TAF
To the Product Selector

WIARTON/ON    

METAR CYVV 242200Z 17012KT 3SM -SN DRSN OVC020 M08/M10 A2961 RMK SC8 SLP043=
METAR CYVV 242100Z 18012G18KT 3SM -SN DRSN OVC020 M08/M10 A2960 RMK SC8 SLP039=
METAR CYVV 242000Z 17015G20KT 4SM -SN DRSN OVC025 M08/M11 A2960 RMK SC8 SLP040=

TAF CYVV 241940Z 2420/2424 17012G22KT 6SM -SN OVC025 TEMPO 2420/2424
2 1/2SM -SN OVC020 PROB30 2420/2424 1 1/2SM -SN
RMK NXT FCST BY 251200Z

KITCHENER/WATERLOO/ON    (show WxCam)

SPECI CYKF 242203Z AUTO 14007KT 6SM -SN OVC027 M07/M09 A2962 RMK SLP050=
METAR CYKF 242200Z AUTO 14007KT 4SM -SN OVC025 M07/M09 A2962 RMK SLP052=
SPECI CYKF 242158Z AUTO 14007KT 3SM -SN OVC025 M07/M09 A2962 RMK SLP050=
SPECI CYKF 242146Z AUTO 17007KT 2 1/2SM -SN OVC017 M07/M09 A2962 RMK SLP050=
METAR CYKF 242100Z AUTO 17009KT 4SM -SN OVC023 M07/M10 A2961 RMK SLP051=
SPECI CYKF 242002Z AUTO 17007KT 3SM -SN OVC019 M07/M10 A2961 RMK SLP047=
METAR CYKF 242000Z AUTO 16009KT 2 1/2SM -SN OVC019 M07/M09 A2961 RMK VIS VRB 2-3 SLP050=

TAF CYKF 241940Z 2420/2508 18008KT 1 1/2SM -SN OVC010 TEMPO
2420/2502 3SM -SN OVC025 PROB30 2420/2502 3/4SM -SN OVC007
FM250200 15006KT 2SM -SN SCT006 OVC012 TEMPO 2502/2504 6SM -SN
BKN015 OVC030
BECMG 2502/2504 31005KT
FM250400 31005KT P6SM FEW015 OVC030
FM250700 31008KT P6SM FEW015
RMK FCST BASED ON AUTO OBS. NXT FCST BY 250200Z

LONDON/ON    

METAR CYXU 242200Z 21004KT 1/2SM R15/6000FT/D SN VV005 M06/M07 A2962 RMK SN8 SLP049=
SPECI CYXU 242134Z 21002KT 1/2SM R15/5000VP6000FT/D SN VV005 M06/M07 A2961 RMK SN8 SLP048=
METAR CYXU 242100Z 20004KT 1/2SM R15/P6000FT/D SN VV006 M06/M08 A2961 RMK SN8 /S05/ SLP047=
METAR CYXU 242000Z 19009KT 1/2SM R15/5500V6000FT/U SN VV006 M06/M08 A2961 RMK SN8 /S04/ SLP046=

TAF AMD CYXU 241750Z 2418/2518 18008KT 3/4SM -SN VV007 TEMPO
2418/2424 3SM -SN FEW008 OVC015
FM250000 24007KT 2SM -SN BKN012 OVC050 TEMPO 2500/2503 6SM -SN
PROB30 2500/2502 1 1/2SM -SN OVC008
FM250300 30007KT 6SM -SN BKN015 BKN050
FM251100 31008KT P6SM BKN030
BECMG 2514/2516 31010G20KT
RMK NXT FCST BY 250000Z=


RADAR PCPN RATE
To the Product Selector
Ontario      Quebec     

GRAPHICAL FA CLOUDS & WEATHER FORECASTS
To the Product Selector
Graphical FA gfacn33      

GRAPHICAL FA ICING, TURBULENCE & FREEZING LEVEL FORECASTS
To the Product Selector
Graphical FA gfacn33      

FDTEXT Low Level FD. Temperatures are not forecast for the 3,000-foot level.
To the Product Selector
STN YVV - WIARTON. ONT for use 3000 6000 9000 12000 18000
FDCN01 CWAO FCST BASED ON 241200 DATA VALID 241800 17-21 2126 2529-19 2633-20 2642-21 2666-31
FDCN02 CWAO FCST BASED ON 241200 DATA VALID 250000 21-06 2418 2817-18 2719-24 2641-25 2661-33
FDCN03 CWAO FCST BASED ON 241200 DATA VALID 251200 06-17 3119 3024-21 2826-24 2831-27 2743-36



Your time UTC time
Weather data provided by Environment Canada and NAV CANADA